Monday, February 19, 2018, 5:04 AM EST
Back to Local

KSWF, Newburgh / Stewart

Location: New Windsor, NY, United States Lat: 41.5
Local Time: 5:04 AM EST (10:04 GMT) Lon: -74.1
Time Zone: US/Eastern Elev: 492 ft

Show me the last for .
Show Decoded

2018-02-19 04:45 METAR KSWF 190945Z 00000KT 10SM SKC M03/M05 A3049 =
2018-02-19 03:45 METAR KSWF 190845Z 00000KT 10SM SKC M03/M05 A3049 =
2018-02-19 02:45 METAR KSWF 190745Z 00000KT 10SM SKC M03/M05 A3049 =
2018-02-19 01:45 METAR KSWF 190645Z 00000KT 10SM SKC M03/M05 A3049 =
2018-02-19 00:45 METAR KSWF 190545Z 00000KT 10SM SKC M03/M04 A3049 =
2018-02-18 23:45 METAR KSWF 190445Z 00000KT 10SM SKC M01/M05 A3050 =
2018-02-18 22:45 METAR KSWF 190345Z 00000KT 10SM SKC M03/M05 A3051 =
2018-02-18 21:45 METAR KSWF 190245Z 00000KT 10SM SKC M01/M05 A3050 =
2018-02-18 20:45 METAR KSWF 190145Z 00000KT 10SM SKC M02/M05 A3049 =
2018-02-18 19:45 METAR KSWF 190045Z 00000KT 10SM SKC M01/M05 A3047 =
2018-02-18 18:45 METAR KSWF 182345Z 30005KT 10SM SKC 02/M05 A3045 =
2018-02-18 17:45 METAR KSWF 182245Z 27005KT 20SM FEW050 03/M05 A3042 =
2018-02-18 16:45 METAR KSWF 182145Z 30010KT 20SM FEW050 04/M05 A3040 =
2018-02-18 15:45 METAR KSWF 182045Z 30009KT 20SM FEW030 05/M05 A3037 =
2018-02-18 14:45 METAR KSWF 181945Z 28009KT 20SM FEW030 05/M04 A3034 =
2018-02-18 13:45 METAR KSWF 181845Z 33015G20KT 20SM FEW030 05/M04 A3033 =
2018-02-18 12:45 METAR KSWF 181745Z 33015KT 20SM FEW030 04/M04 A3032 =
2018-02-18 11:45 METAR KSWF 181645Z 34012KT 20SM SKC 04/M05 A3028 =
2018-02-18 10:45 METAR KSWF 181545Z VRB06KT 20SM SKC 03/M06 A3027 =
2018-02-18 09:45 METAR KSWF 181445Z 33013G17KT 20SM SKC 02/M06 A3021 =
2018-02-18 08:45 METAR KSWF 181345Z 35006G17KT 20SM FEW050 01/M05 A3021 =
2018-02-18 07:45 METAR KSWF 181245Z 29012KT 20SM FEW050 00/M04 A3016 =
2018-02-18 06:45 METAR KSWF 181145Z 27004KT 10SM FEW050 M01/M03 A3011 =
2018-02-18 05:45 METAR KSWF 181045Z 27010KT 10SM FEW050 M01/M02 A3006 =

Support USWX by starting your Amazon purchase here.